MMMD/MID METAR and TAF weather

Enter ICAO airport designator
Station Type Date Time Source
MMMD METAR 2020/08/12 17:45 UTC NOAA

MMMD 121745Z 09009KT 7SM SCT020 BKN300 32/24 A2996 RMK SLP146 57007 961 8/108 MDT CU


Station Type Date Time Source
MMMD Decoded METAR 2020/08/12 17:45 UTC NOAA

Merida / lic Manuel Crecencio, Mexico (MMMD) 20-56N 089-39W 11M
Aug 12, 2020 - 01:45 PM EDT / 2020.08.12 1745 UTC
Wind: from the E (090 degrees) at 10 MPH (9 KT):0
Visibility: 7 mile(s):0
Sky conditions: mostly cloudy
Temperature: 89 F (32 C)
Heat index: 98.4 F (36.9 C):1
Dew Point: 75 F (24 C)
Relative Humidity: 62%
Pressure (altimeter): 29.96 in. Hg (1014 hPa)
Pressure tendency: 0.02 inches (0.7 hPa) lower than three hours ago
ob: MMMD 121745Z 09009KT 7SM SCT020 BKN300 32/24 A2996 RMK SLP146 57007 961 8/108 MDT CU
cycle: 18

Station Type Date Time Source
MMMD TAF 2020/08/12 18:21 UTC NOAA

TAF MMMD 121714Z 1218/1324 08010KT P6SM SCT015 BKN300 TX34/1219Z TN23/1312Z
BECMG 1221/1222 BKN015CB
TEMPO 1222/1302 5SM TSRA
FM130300 08008KT P6SM SCT015 BKN300 1317/1318 09008KT

Example: see airport list